createdAt,value
2022-11-16T00:01:27.272Z,81.88
2022-11-16T00:03:58.276Z,82.15
2022-11-16T00:06:28.650Z,80.38
2022-11-16T00:09:19.257Z,82.90
2022-11-16T00:11:52.469Z,78.55
2022-11-16T00:14:23.338Z,76.47
2022-11-16T00:16:52.806Z,72.45
2022-11-16T00:19:21.848Z,73.03
2022-11-16T00:21:51.043Z,71.55
2022-11-16T00:24:22.000Z,70.97
2022-11-16T00:26:51.743Z,71.53
2022-11-16T00:29:26.412Z,65.40
2022-11-16T00:31:56.662Z,68.53
2022-11-16T00:34:25.955Z,64.55
2022-11-16T00:36:55.303Z,63.33
2022-11-16T00:39:24.536Z,62.13
2022-11-16T00:41:53.696Z,62.03
2022-11-16T00:44:22.491Z,60.80
2022-11-16T00:46:51.696Z,63.15
2022-11-16T00:49:20.630Z,58.75
2022-11-16T00:51:49.777Z,60.83
2022-11-16T00:54:18.792Z,63.83
2022-11-16T00:56:48.019Z,64.20
2022-11-16T00:59:17.245Z,62.92
2022-11-16T01:01:47.802Z,66.30
2022-11-16T01:04:20.509Z,62.78
2022-11-16T01:06:50.492Z,64.60
2022-11-16T01:09:23.845Z,66.75
2022-11-16T01:12:11.463Z,66.28
2022-11-16T01:14:50.030Z,65.00
2022-11-16T01:17:19.963Z,68.18
2022-11-16T01:19:49.578Z,67.85
2022-11-16T01:22:19.981Z,73.00
2022-11-16T01:24:49.891Z,73.93
2022-11-16T01:27:20.100Z,74.75
2022-11-16T01:29:49.777Z,75.60
2022-11-16T01:32:19.797Z,74.30
2022-11-16T01:34:49.608Z,76.10
2022-11-16T01:37:32.032Z,72.00
2022-11-16T01:40:02.439Z,106.47
2022-11-16T01:42:34.548Z,88.43
2022-11-16T01:45:13.238Z,80.63
2022-11-16T01:47:42.883Z,71.68
2022-11-16T01:50:18.990Z,83.88
2022-11-16T01:53:05.782Z,74.95
2022-11-16T01:55:46.716Z,74.07
2022-11-16T01:58:37.483Z,74.10
2022-11-16T02:01:18.728Z,76.97
2022-11-16T02:03:53.633Z,77.68
2022-11-16T02:06:26.786Z,80.70
2022-11-16T02:09:45.447Z,81.72
2022-11-16T02:12:43.094Z,86.22
2022-11-16T02:15:38.340Z,85.78
2022-11-16T02:18:41.072Z,92.60
2022-11-16T02:21:36.918Z,92.20
2022-11-16T02:24:27.581Z,97.10
2022-11-16T02:27:13.145Z,76.43
2022-11-16T02:29:54.078Z,76.70
2022-11-16T02:32:40.862Z,82.38
2022-11-16T02:35:36.099Z,81.82
2022-11-16T02:38:14.530Z,82.38
2022-11-16T02:40:49.322Z,89.63
2022-11-16T02:43:38.218Z,83.15
2022-11-16T02:46:14.052Z,91.95
2022-11-16T02:48:51.947Z,87.55
2022-11-16T02:51:24.767Z,87.30
2022-11-16T02:54:21.840Z,86.15
2022-11-16T02:57:05.540Z,92.15
2022-11-16T02:59:44.583Z,90.93
2022-11-16T03:03:03.928Z,90.82
2022-11-16T03:05:45.576Z,91.28
2022-11-16T03:08:18.878Z,93.47
2022-11-16T03:11:15.341Z,94.15
2022-11-16T03:13:46.360Z,97.88
2022-11-16T03:16:34.977Z,109.13
2022-11-16T03:19:09.784Z,109.47
2022-11-16T03:21:51.533Z,114.15
2022-11-16T03:24:23.598Z,112.72
2022-11-16T03:27:17.595Z,106.88
2022-11-16T03:29:59.700Z,97.20
2022-11-16T03:32:38.893Z,88.53
2022-11-16T03:35:24.875Z,88.65
2022-11-16T03:37:58.331Z,94.25
2022-11-16T03:40:32.932Z,91.63
2022-11-16T03:43:08.069Z,91.32
2022-11-16T03:45:39.777Z,91.47
2022-11-16T03:48:10.573Z,92.20
2022-11-16T03:50:41.935Z,91.18
2022-11-16T03:53:12.342Z,92.95
2022-11-16T03:55:48.482Z,95.63
2022-11-16T03:58:19.877Z,107.18
2022-11-16T04:00:50.124Z,96.30
2022-11-16T04:03:21.376Z,100.88
2022-11-16T04:06:10.080Z,92.88
2022-11-16T04:09:00.483Z,91.32
2022-11-16T04:11:49.973Z,86.60
2022-11-16T04:14:40.763Z,86.03
2022-11-16T04:17:38.903Z,84.00
2022-11-16T04:20:32.821Z,76.90
2022-11-16T04:23:32.187Z,73.10
2022-11-16T04:26:04.396Z,75.55
2022-11-16T04:28:36.057Z,71.50
2022-11-16T04:31:27.120Z,73.00
2022-11-16T04:34:23.949Z,71.00
2022-11-16T04:37:15.298Z,64.40
2022-11-16T04:39:45.043Z,55.67
2022-11-16T04:42:21.016Z,55.47
2022-11-16T04:45:11.141Z,53.42
2022-11-16T04:47:51.571Z,50.63
2022-11-16T04:50:23.209Z,49.63
2022-11-16T04:52:53.155Z,47.60
2022-11-16T04:55:22.444Z,49.17
2022-11-16T04:57:52.617Z,47.58
2022-11-16T05:00:23.220Z,48.47
2022-11-16T05:02:58.220Z,50.83
2022-11-16T05:05:30.976Z,45.53
2022-11-16T05:08:01.515Z,44.28
2022-11-16T05:10:33.423Z,40.40
2022-11-16T05:13:02.831Z,39.40
2022-11-16T05:15:31.936Z,37.22
2022-11-16T05:18:01.785Z,35.10
2022-11-16T05:20:50.448Z,38.55
2022-11-16T05:23:38.089Z,39.60
2022-11-16T05:26:12.664Z,37.20
2022-11-16T05:28:41.928Z,38.75
2022-11-16T05:31:13.564Z,35.15
2022-11-16T05:33:43.121Z,43.22
2022-11-16T05:36:13.565Z,45.20
2022-11-16T05:38:42.613Z,41.55
2022-11-16T05:41:14.907Z,41.60
2022-11-16T05:43:44.731Z,33.45
2022-11-16T05:46:19.796Z,30.75
2022-11-16T05:48:49.502Z,30.10
2022-11-16T05:51:19.154Z,39.67
2022-11-16T05:53:50.273Z,30.58
2022-11-16T05:56:24.185Z,27.00
2022-11-16T05:58:55.277Z,27.77
2022-11-16T06:01:24.446Z,28.17
2022-11-16T06:03:54.291Z,29.65
2022-11-16T06:06:23.035Z,28.75
2022-11-16T06:08:53.467Z,29.45
2022-11-16T06:11:29.135Z,26.30
2022-11-16T06:14:02.088Z,25.92
2022-11-16T06:16:31.360Z,25.15
2022-11-16T06:19:02.430Z,26.48
2022-11-16T06:21:31.758Z,23.30
2022-11-16T06:24:04.153Z,21.30
2022-11-16T06:26:33.729Z,19.85
2022-11-16T06:29:03.049Z,19.58
2022-11-16T06:31:33.258Z,20.02
2022-11-16T06:34:04.700Z,18.92
2022-11-16T06:36:34.273Z,19.88
2022-11-16T06:39:03.097Z,21.83
2022-11-16T06:41:41.233Z,21.35
2022-11-16T06:44:13.021Z,23.63
2022-11-16T06:46:52.267Z,23.52
2022-11-16T06:49:21.629Z,24.88
2022-11-16T06:51:52.920Z,23.23
2022-11-16T06:54:21.981Z,23.85
2022-11-16T06:56:51.536Z,23.30
2022-11-16T06:59:21.340Z,21.10
2022-11-16T07:01:52.087Z,20.33
2022-11-16T07:04:22.606Z,19.77
2022-11-16T07:06:56.711Z,17.75
2022-11-16T07:09:26.283Z,18.90
2022-11-16T07:11:55.433Z,20.20
2022-11-16T07:14:25.232Z,21.35
2022-11-16T07:16:59.322Z,21.77
2022-11-16T07:19:30.252Z,19.77
2022-11-16T07:22:01.377Z,20.38
2022-11-16T07:24:30.473Z,21.25
2022-11-16T07:26:59.224Z,19.45
2022-11-16T07:29:33.391Z,18.90
2022-11-16T07:32:29.476Z,19.77
2022-11-16T07:35:14.622Z,19.95
2022-11-16T07:37:46.879Z,17.38
2022-11-16T07:40:17.747Z,17.88
2022-11-16T07:42:48.031Z,18.98
2022-11-16T07:45:28.935Z,18.77
2022-11-16T07:48:08.226Z,19.75
2022-11-16T07:50:56.277Z,20.60
2022-11-16T07:53:25.665Z,22.42
2022-11-16T07:55:55.552Z,20.90
2022-11-16T07:58:28.574Z,20.40
2022-11-16T08:01:15.500Z,21.23
2022-11-16T08:03:48.099Z,20.63
2022-11-16T08:06:25.064Z,19.17
2022-11-16T08:08:58.654Z,18.17
2022-11-16T08:11:30.254Z,17.88
2022-11-16T08:13:59.917Z,18.50
2022-11-16T08:16:29.521Z,18.83
2022-11-16T08:19:07.965Z,17.70
2022-11-16T08:21:37.356Z,17.83
2022-11-16T08:24:06.790Z,18.27
2022-11-16T08:26:39.856Z,17.00
2022-11-16T08:29:12.954Z,15.90
2022-11-16T08:31:46.875Z,18.10
2022-11-16T08:34:20.050Z,17.65
2022-11-16T08:36:53.316Z,16.75
2022-11-16T08:39:29.118Z,18.55
2022-11-16T08:41:58.679Z,17.50
2022-11-16T08:44:27.637Z,17.08
2022-11-16T08:46:59.521Z,18.75
2022-11-16T08:49:36.077Z,18.63
2022-11-16T08:52:07.070Z,18.25
2022-11-16T08:54:37.194Z,17.80
2022-11-16T08:57:07.572Z,18.50
2022-11-16T08:59:39.352Z,18.57
2022-11-16T09:02:14.078Z,18.45
2022-11-16T09:04:43.383Z,19.38
2022-11-16T09:07:12.346Z,18.15
2022-11-16T09:09:42.035Z,17.90
2022-11-16T09:12:10.783Z,18.17
2022-11-16T09:14:40.023Z,19.15
2022-11-16T09:17:09.298Z,19.85
2022-11-16T09:19:38.733Z,19.60
2022-11-16T09:22:07.884Z,21.25
2022-11-16T09:24:37.236Z,20.70
2022-11-16T09:27:07.705Z,22.20
2022-11-16T09:29:36.848Z,22.08
2022-11-16T09:32:06.879Z,21.65
2022-11-16T09:34:37.182Z,19.85
2022-11-16T09:37:06.587Z,20.20
2022-11-16T09:39:35.617Z,20.50
2022-11-16T09:42:48.583Z,18.33
2022-11-16T09:45:26.533Z,18.92
2022-11-16T09:48:04.184Z,18.77
2022-11-16T09:50:44.588Z,21.70
2022-11-16T09:53:52.086Z,20.88
2022-11-16T09:56:26.629Z,21.25
2022-11-16T09:59:02.580Z,20.88
2022-11-16T10:01:50.331Z,23.60
2022-11-16T10:04:48.821Z,26.92
2022-11-16T10:07:26.625Z,25.00
2022-11-16T10:09:58.443Z,27.60
2022-11-16T10:12:44.464Z,24.58
2022-11-16T10:15:31.741Z,28.77
2022-11-16T10:18:28.612Z,29.75
2022-11-16T10:21:25.243Z,31.17
2022-11-16T10:24:35.015Z,33.92
2022-11-16T10:27:34.080Z,37.05
2022-11-16T10:30:18.437Z,37.85
2022-11-16T10:33:10.744Z,38.28
2022-11-16T10:35:53.138Z,37.47
2022-11-16T10:38:26.842Z,35.10
2022-11-16T10:41:21.557Z,33.70
2022-11-16T10:43:51.024Z,26.23
2022-11-16T10:46:25.462Z,24.95
2022-11-16T10:48:59.604Z,25.90
2022-11-16T10:51:29.089Z,27.77
2022-11-16T10:53:58.132Z,30.10
2022-11-16T10:56:41.744Z,29.88
2022-11-16T10:59:16.328Z,27.85
2022-11-16T11:01:52.307Z,28.40
2022-11-16T11:04:23.375Z,39.08
2022-11-16T11:07:21.175Z,39.60
2022-11-16T11:09:55.116Z,40.80
2022-11-16T11:12:41.691Z,33.83
2022-11-16T11:15:20.140Z,33.53
2022-11-16T11:18:11.704Z,32.90
2022-11-16T11:20:45.000Z,32.35
2022-11-16T11:23:25.531Z,33.00
2022-11-16T11:26:02.196Z,34.88
2022-11-16T11:28:38.089Z,34.40
2022-11-16T11:31:18.256Z,32.22
2022-11-16T11:34:01.604Z,32.50
2022-11-16T11:36:41.516Z,29.15
2022-11-16T11:39:13.547Z,32.08
2022-11-16T11:41:45.256Z,30.85
2022-11-16T11:44:19.853Z,33.15
2022-11-16T11:47:50.443Z,32.13
2022-11-16T11:50:17.835Z,32.92
2022-11-16T11:53:13.082Z,32.88
2022-11-16T11:55:42.830Z,32.85
2022-11-16T11:58:19.641Z,31.92
2022-11-16T12:01:24.857Z,30.83
2022-11-16T12:04:09.742Z,30.92
2022-11-16T12:06:44.179Z,31.48
2022-11-16T12:09:39.403Z,30.35
2022-11-16T12:12:26.794Z,32.17
2022-11-16T12:15:11.987Z,32.88
2022-11-16T12:18:01.924Z,34.72
2022-11-16T12:20:45.557Z,34.08
2022-11-16T12:23:38.945Z,35.45
2022-11-16T12:26:31.962Z,37.10
2022-11-16T12:29:20.440Z,39.72
2022-11-16T12:32:11.336Z,38.30
2022-11-16T12:34:47.144Z,40.90
2022-11-16T12:37:40.372Z,39.67
2022-11-16T12:40:19.125Z,39.90
2022-11-16T12:42:59.872Z,42.63
2022-11-16T12:45:37.417Z,46.50
2022-11-16T12:48:35.614Z,55.50
2022-11-16T12:51:31.954Z,47.10
2022-11-16T12:54:10.063Z,46.20
2022-11-16T12:56:49.265Z,46.95
2022-11-16T12:59:22.063Z,43.15
2022-11-16T13:02:00.459Z,48.58
2022-11-16T13:04:42.277Z,45.80
2022-11-16T13:07:19.079Z,46.67
2022-11-16T13:09:52.646Z,50.83
2022-11-16T13:12:24.775Z,49.97
2022-11-16T13:14:57.257Z,47.95
2022-11-16T13:17:36.334Z,48.42
2022-11-16T13:20:23.148Z,49.53
2022-11-16T13:23:10.636Z,54.40
2022-11-16T13:25:47.276Z,57.25
2022-11-16T13:28:21.733Z,57.80
2022-11-16T13:31:11.884Z,55.72
2022-11-16T13:33:54.941Z,50.03
2022-11-16T13:36:46.010Z,48.65
2022-11-16T13:39:23.497Z,48.25
2022-11-16T13:42:08.565Z,44.70
2022-11-16T13:44:37.908Z,44.70
2022-11-16T13:47:27.245Z,46.22
2022-11-16T13:50:03.339Z,51.40
2022-11-16T13:55:47.485Z,54.25
2022-11-16T13:58:23.655Z,53.92
2022-11-16T14:01:03.789Z,56.28
2022-11-16T14:03:39.391Z,60.72
2022-11-16T14:06:31.005Z,57.90
2022-11-16T14:09:01.783Z,58.67
2022-11-16T14:11:39.970Z,64.57
2022-11-16T14:14:14.846Z,59.65
2022-11-16T14:16:49.738Z,61.85
2022-11-16T14:19:50.277Z,63.53
2022-11-16T14:22:45.663Z,63.70
2022-11-16T14:25:23.698Z,69.30
2022-11-16T14:28:11.227Z,72.45
2022-11-16T14:31:07.773Z,73.45
2022-11-16T14:33:39.191Z,79.95
2022-11-16T14:36:11.297Z,78.72
2022-11-16T14:38:45.744Z,77.22
2022-11-16T14:41:22.200Z,64.20
2022-11-16T14:43:55.377Z,69.10
2022-11-16T14:46:33.926Z,63.55
2022-11-16T14:49:04.614Z,64.10
2022-11-16T14:51:37.961Z,61.35
2022-11-16T14:54:21.732Z,59.00
2022-11-16T14:57:01.359Z,61.95
2022-11-16T14:59:32.656Z,63.08
2022-11-16T15:02:19.309Z,62.55
2022-11-16T15:04:49.925Z,62.80
2022-11-16T15:07:20.500Z,61.67
2022-11-16T15:09:54.650Z,63.55
2022-11-16T15:12:43.024Z,61.58
2022-11-16T15:15:12.385Z,65.15
2022-11-16T15:17:44.063Z,61.80
2022-11-16T15:20:25.948Z,59.10
2022-11-16T15:22:58.153Z,60.15
2022-11-16T15:25:44.648Z,59.40
2022-11-16T15:28:24.496Z,60.50
2022-11-16T15:30:58.847Z,60.00
2022-11-16T15:33:31.969Z,68.22
2022-11-16T15:36:01.433Z,75.07
2022-11-16T15:38:35.048Z,124.88
2022-11-16T15:41:07.067Z,106.13
2022-11-16T15:43:49.623Z,121.93
2022-11-16T15:46:35.715Z,117.97
2022-11-16T15:49:07.224Z,100.13
2022-11-16T15:51:45.686Z,101.60
2022-11-16T15:54:27.920Z,121.40
2022-11-16T15:57:06.617Z,135.10
2022-11-16T15:59:38.683Z,107.47
2022-11-16T16:02:30.652Z,123.80
2022-11-16T16:05:00.031Z,120.53
2022-11-16T16:07:40.857Z,115.38
2022-11-16T16:10:22.265Z,118.22
2022-11-16T16:12:56.934Z,128.40
2022-11-16T16:15:41.217Z,113.43
2022-11-16T16:18:41.037Z,101.05
2022-11-16T16:21:12.819Z,88.72
2022-11-16T16:23:50.973Z,93.23
2022-11-16T16:26:20.311Z,89.45
2022-11-16T16:28:49.375Z,93.20
2022-11-16T16:31:20.060Z,103.55
2022-11-16T16:33:49.222Z,108.82
2022-11-16T16:36:18.325Z,103.30
2022-11-16T16:38:47.614Z,103.78
2022-11-16T16:41:24.008Z,104.55
2022-11-16T16:43:53.531Z,101.50
2022-11-16T16:46:23.029Z,94.72
2022-11-16T16:48:52.004Z,93.28
2022-11-16T16:51:20.864Z,90.03
2022-11-16T16:53:50.128Z,91.68
2022-11-16T16:56:20.847Z,91.13
2022-11-16T16:58:50.099Z,92.43
2022-11-16T17:01:19.464Z,92.93
2022-11-16T17:03:49.123Z,92.93
2022-11-16T17:06:18.490Z,92.30
2022-11-16T17:08:47.212Z,92.93
2022-11-16T17:11:17.180Z,93.15
2022-11-16T17:13:46.445Z,100.60
2022-11-16T17:16:15.932Z,107.00
2022-11-16T17:18:45.688Z,105.95
2022-11-16T17:21:16.138Z,105.65
2022-11-16T17:23:44.844Z,108.63
2022-11-16T17:26:13.813Z,108.55
2022-11-16T17:28:43.374Z,103.18
2022-11-16T17:31:13.140Z,102.75
2022-11-16T17:33:44.129Z,98.07
2022-11-16T17:36:14.420Z,95.72
2022-11-16T17:38:43.821Z,94.75
2022-11-16T17:41:21.610Z,93.13
2022-11-16T17:43:54.080Z,92.80
2022-11-16T17:46:25.421Z,89.90
2022-11-16T17:48:54.759Z,88.70
2022-11-16T17:51:26.256Z,82.65
2022-11-16T17:53:55.519Z,77.82
2022-11-16T17:56:28.545Z,79.95
2022-11-16T17:58:59.327Z,76.28
2022-11-16T18:01:29.716Z,72.57
2022-11-16T18:03:58.801Z,76.13
2022-11-16T18:06:27.764Z,76.63
2022-11-16T18:08:58.200Z,77.68
2022-11-16T18:11:28.652Z,79.30
2022-11-16T18:14:02.267Z,76.13
2022-11-16T18:16:33.302Z,77.35
2022-11-16T18:19:05.202Z,78.65
2022-11-16T18:21:41.414Z,91.38
2022-11-16T18:24:11.669Z,91.25
2022-11-16T18:26:41.652Z,81.30
2022-11-16T18:29:17.132Z,74.88
2022-11-16T18:31:46.662Z,70.40
2022-11-16T18:34:16.151Z,73.40
2022-11-16T18:36:45.222Z,77.38
2022-11-16T18:39:14.055Z,78.38
2022-11-16T18:41:53.449Z,84.53
2022-11-16T18:44:24.135Z,96.75
2022-11-16T18:46:53.132Z,108.63
2022-11-16T18:49:22.122Z,114.10
2022-11-16T18:51:50.976Z,115.53
2022-11-16T18:54:20.672Z,126.55
2022-11-16T18:56:49.885Z,137.05
2022-11-16T18:59:19.173Z,130.27
2022-11-16T19:01:48.074Z,131.07
2022-11-16T19:04:17.246Z,132.25
2022-11-16T19:06:46.576Z,131.77
2022-11-16T19:09:15.432Z,149.75
2022-11-16T19:11:44.582Z,150.90
2022-11-16T19:14:13.884Z,155.80
2022-11-16T19:16:54.045Z,153.90
2022-11-16T19:19:26.406Z,145.60
2022-11-16T19:21:58.132Z,145.88
2022-11-16T19:24:27.079Z,143.70
2022-11-16T19:26:56.076Z,142.50
2022-11-16T19:29:25.424Z,136.75
2022-11-16T19:31:54.204Z,129.32
2022-11-16T19:34:23.047Z,139.05
2022-11-16T19:36:52.282Z,124.85
2022-11-16T19:39:22.929Z,118.90
2022-11-16T19:41:51.893Z,105.80
2022-11-16T19:44:21.202Z,102.75
2022-11-16T19:46:50.337Z,102.65
2022-11-16T19:49:20.698Z,103.10
2022-11-16T19:51:50.592Z,105.63
2022-11-16T19:54:19.305Z,97.88
2022-11-16T19:56:54.680Z,101.75
2022-11-16T19:59:23.950Z,99.80
2022-11-16T20:01:53.183Z,104.15
2022-11-16T20:04:22.084Z,105.93
2022-11-16T20:06:51.159Z,109.25
2022-11-16T20:09:20.466Z,109.00
2022-11-16T20:11:49.189Z,115.53
2022-11-16T20:14:18.091Z,117.30
2022-11-16T20:16:50.956Z,115.03
2022-11-16T20:21:49.532Z,119.45
2022-11-16T20:24:19.712Z,131.80
2022-11-16T20:26:50.232Z,128.60
2022-11-16T20:29:20.797Z,125.13
2022-11-16T20:31:49.789Z,126.10
2022-11-16T20:34:21.481Z,123.80
2022-11-16T20:36:52.210Z,121.57
2022-11-16T20:39:22.299Z,122.85
2022-11-16T20:41:51.081Z,123.55
2022-11-16T20:44:23.221Z,120.85
2022-11-16T20:46:53.764Z,128.48
2022-11-16T20:49:23.171Z,131.55
2022-11-16T20:51:52.554Z,132.02
2022-11-16T20:54:21.528Z,132.68
2022-11-16T20:56:51.428Z,136.30
2022-11-16T20:59:20.767Z,140.10
2022-11-16T21:01:53.574Z,144.57
2022-11-16T21:04:23.101Z,131.48
2022-11-16T21:06:52.398Z,130.13
2022-11-16T21:09:23.646Z,122.03
2022-11-16T21:12:11.536Z,123.28
2022-11-16T21:14:40.659Z,123.43
2022-11-16T21:17:09.349Z,119.32
2022-11-16T21:19:38.485Z,117.40
2022-11-16T21:22:07.427Z,112.82
2022-11-16T21:24:36.120Z,116.20
2022-11-16T21:27:05.413Z,114.45
2022-11-16T21:29:34.633Z,113.10
2022-11-16T21:32:03.860Z,113.18
2022-11-16T21:34:37.285Z,110.65
2022-11-16T21:37:08.833Z,105.82
2022-11-16T21:39:38.339Z,98.38
2022-11-16T21:42:07.073Z,97.30
2022-11-16T21:44:43.116Z,95.30
2022-11-16T21:47:15.244Z,96.90
2022-11-16T21:50:08.717Z,91.40
2022-11-16T21:52:33.695Z,93.00
2022-11-16T21:55:02.702Z,88.45
2022-11-16T21:57:31.695Z,88.45
2022-11-16T22:00:01.947Z,89.63
2022-11-16T22:02:40.192Z,85.30
2022-11-16T22:05:28.436Z,86.30
2022-11-16T22:07:58.022Z,86.57
2022-11-16T22:10:27.046Z,85.72
2022-11-16T22:12:56.004Z,85.20
2022-11-16T22:15:25.203Z,88.97
2022-11-16T22:17:54.022Z,86.30
2022-11-16T22:20:23.437Z,87.97
2022-11-16T22:22:52.110Z,86.63
2022-11-16T22:25:21.347Z,88.72
2022-11-16T22:28:19.212Z,85.47
2022-11-16T22:30:39.458Z,89.43
2022-11-16T22:33:08.536Z,91.75
2022-11-16T22:35:40.296Z,89.95
2022-11-16T22:38:09.533Z,88.67
2022-11-16T22:40:38.499Z,92.13
2022-11-16T22:43:07.265Z,91.75
2022-11-16T22:45:36.347Z,89.25
2022-11-16T22:48:05.368Z,92.45
2022-11-16T22:50:34.359Z,93.10
2022-11-16T22:53:03.368Z,96.53
2022-11-16T22:55:35.518Z,94.38
2022-11-16T22:58:06.467Z,90.90
2022-11-16T23:00:40.680Z,92.28
2022-11-16T23:03:11.172Z,93.13
2022-11-16T23:05:40.292Z,96.70
2022-11-16T23:08:09.386Z,104.68
2022-11-16T23:10:58.193Z,108.45
2022-11-16T23:13:46.003Z,110.20
2022-11-16T23:16:15.229Z,113.20
2022-11-16T23:18:43.928Z,116.60
2022-11-16T23:21:31.216Z,109.95
2022-11-16T23:24:18.292Z,120.07
2022-11-16T23:27:06.229Z,116.63
2022-11-16T23:29:35.213Z,114.55
2022-11-16T23:32:03.874Z,124.93
2022-11-16T23:34:33.005Z,133.80
2022-11-16T23:37:07.071Z,133.73
2022-11-16T23:39:36.576Z,139.98
2022-11-16T23:42:23.705Z,144.68
2022-11-16T23:44:53.198Z,145.85
2022-11-16T23:47:21.982Z,139.68
2022-11-16T23:49:50.844Z,139.55
2022-11-16T23:52:20.489Z,138.93
2022-11-16T23:54:49.347Z,143.38
2022-11-16T23:57:18.308Z,138.88
2022-11-16T23:59:50.102Z,149.95
